sensor_id;sensor_type;location;lat;lon;timestamp;P1;durP1;ratioP1;P2;durP2;ratioP2
31442;SDS011;18065;55.876;9.830;2023-02-11T00:01:38;3.53;;;1.73;;
31442;SDS011;18065;55.876;9.830;2023-02-11T00:04:07;3.33;;;1.25;;
31442;SDS011;18065;55.876;9.830;2023-02-11T00:06:35;3.10;;;1.35;;
31442;SDS011;18065;55.876;9.830;2023-02-11T00:09:05;5.45;;;1.40;;
31442;SDS011;18065;55.876;9.830;2023-02-11T00:11:34;4.65;;;1.52;;
31442;SDS011;18065;55.876;9.830;2023-02-11T00:14:05;4.85;;;1.48;;
31442;SDS011;18065;55.876;9.830;2023-02-11T00:16:34;4.68;;;1.38;;
31442;SDS011;18065;55.876;9.830;2023-02-11T00:19:03;3.88;;;1.48;;
31442;SDS011;18065;55.876;9.830;2023-02-11T00:21:32;3.50;;;1.55;;
31442;SDS011;18065;55.876;9.830;2023-02-11T00:24:02;5.05;;;1.35;;
31442;SDS011;18065;55.876;9.830;2023-02-11T00:26:32;3.00;;;1.15;;
31442;SDS011;18065;55.876;9.830;2023-02-11T00:29:02;4.10;;;1.50;;
31442;SDS011;18065;55.876;9.830;2023-02-11T00:31:34;5.47;;;1.38;;
31442;SDS011;18065;55.876;9.830;2023-02-11T00:34:04;3.05;;;1.40;;
31442;SDS011;18065;55.876;9.830;2023-02-11T00:36:32;2.53;;;1.15;;
31442;SDS011;18065;55.876;9.830;2023-02-11T00:39:01;5.20;;;1.02;;
31442;SDS011;18065;55.876;9.830;2023-02-11T00:41:30;3.58;;;1.27;;
31442;SDS011;18065;55.876;9.830;2023-02-11T00:43:59;3.50;;;1.30;;
31442;SDS011;18065;55.876;9.830;2023-02-11T00:46:30;3.17;;;1.33;;
31442;SDS011;18065;55.876;9.830;2023-02-11T00:48:59;2.10;;;1.02;;
31442;SDS011;18065;55.876;9.830;2023-02-11T00:51:27;3.13;;;1.13;;
31442;SDS011;18065;55.876;9.830;2023-02-11T00:53:56;4.43;;;1.10;;
31442;SDS011;18065;55.876;9.830;2023-02-11T00:56:25;3.85;;;1.33;;
31442;SDS011;18065;55.876;9.830;2023-02-11T00:58:54;2.03;;;1.30;;
31442;SDS011;18065;55.876;9.830;2023-02-11T01:01:22;2.50;;;1.42;;
31442;SDS011;18065;55.876;9.830;2023-02-11T01:03:54;2.97;;;1.25;;
31442;SDS011;18065;55.876;9.830;2023-02-11T01:06:22;2.17;;;1.30;;
31442;SDS011;18065;55.876;9.830;2023-02-11T01:08:51;2.22;;;0.95;;
31442;SDS011;18065;55.876;9.830;2023-02-11T01:11:22;3.47;;;1.17;;
31442;SDS011;18065;55.876;9.830;2023-02-11T01:13:51;2.97;;;1.25;;
31442;SDS011;18065;55.876;9.830;2023-02-11T01:16:19;4.10;;;1.10;;
31442;SDS011;18065;55.876;9.830;2023-02-11T01:18:48;2.70;;;1.27;;
31442;SDS011;18065;55.876;9.830;2023-02-11T01:21:20;2.88;;;1.20;;
31442;SDS011;18065;55.876;9.830;2023-02-11T01:23:48;3.25;;;1.38;;
31442;SDS011;18065;55.876;9.830;2023-02-11T01:26:17;2.25;;;1.20;;
31442;SDS011;18065;55.876;9.830;2023-02-11T01:28:46;2.17;;;1.00;;
31442;SDS011;18065;55.876;9.830;2023-02-11T01:31:15;5.30;;;1.20;;
31442;SDS011;18065;55.876;9.830;2023-02-11T01:33:43;5.10;;;1.40;;
31442;SDS011;18065;55.876;9.830;2023-02-11T01:36:13;4.28;;;1.13;;
31442;SDS011;18065;55.876;9.830;2023-02-11T01:38:44;3.63;;;1.13;;
31442;SDS011;18065;55.876;9.830;2023-02-11T01:41:14;4.05;;;1.35;;
31442;SDS011;18065;55.876;9.830;2023-02-11T01:43:45;5.45;;;1.33;;
31442;SDS011;18065;55.876;9.830;2023-02-11T01:46:28;3.08;;;1.10;;
31442;SDS011;18065;55.876;9.830;2023-02-11T01:49:00;4.32;;;1.33;;
31442;SDS011;18065;55.876;9.830;2023-02-11T01:54:06;3.53;;;1.40;;
31442;SDS011;18065;55.876;9.830;2023-02-11T01:56:51;2.17;;;1.13;;
31442;SDS011;18065;55.876;9.830;2023-02-11T01:59:37;3.03;;;1.23;;
31442;SDS011;18065;55.876;9.830;2023-02-11T02:02:09;3.00;;;1.10;;
31442;SDS011;18065;55.876;9.830;2023-02-11T02:04:41;3.10;;;1.20;;
31442;SDS011;18065;55.876;9.830;2023-02-11T02:07:16;4.25;;;1.50;;
31442;SDS011;18065;55.876;9.830;2023-02-11T02:09:55;3.47;;;1.50;;
31442;SDS011;18065;55.876;9.830;2023-02-11T02:12:27;2.95;;;1.17;;
31442;SDS011;18065;55.876;9.830;2023-02-11T02:17:56;2.40;;;0.95;;
31442;SDS011;18065;55.876;9.830;2023-02-11T02:20:42;4.45;;;1.25;;
31442;SDS011;18065;55.876;9.830;2023-02-11T02:23:28;2.72;;;0.95;;
31442;SDS011;18065;55.876;9.830;2023-02-11T02:29:41;2.75;;;1.20;;
31442;SDS011;18065;55.876;9.830;2023-02-11T02:32:48;4.68;;;1.30;;
31442;SDS011;18065;55.876;9.830;2023-02-11T02:35:24;3.83;;;1.20;;
31442;SDS011;18065;55.876;9.830;2023-02-11T02:37:59;3.30;;;1.10;;
31442;SDS011;18065;55.876;9.830;2023-02-11T02:40:35;3.83;;;1.40;;
31442;SDS011;18065;55.876;9.830;2023-02-11T02:43:08;2.47;;;1.67;;
31442;SDS011;18065;55.876;9.830;2023-02-11T02:45:37;2.78;;;1.10;;
31442;SDS011;18065;55.876;9.830;2023-02-11T02:48:20;5.20;;;1.42;;
31442;SDS011;18065;55.876;9.830;2023-02-11T02:50:52;3.10;;;1.27;;
31442;SDS011;18065;55.876;9.830;2023-02-11T02:53:31;3.13;;;1.20;;
31442;SDS011;18065;55.876;9.830;2023-02-11T02:56:09;1.73;;;1.00;;
31442;SDS011;18065;55.876;9.830;2023-02-11T02:58:48;4.28;;;1.13;;
31442;SDS011;18065;55.876;9.830;2023-02-11T03:01:33;3.03;;;1.00;;
31442;SDS011;18065;55.876;9.830;2023-02-11T03:04:18;2.75;;;1.02;;
31442;SDS011;18065;55.876;9.830;2023-02-11T03:06:55;2.15;;;1.05;;
31442;SDS011;18065;55.876;9.830;2023-02-11T03:09:30;3.38;;;1.10;;
31442;SDS011;18065;55.876;9.830;2023-02-11T03:12:04;2.60;;;1.20;;
31442;SDS011;18065;55.876;9.830;2023-02-11T03:14:34;2.90;;;0.98;;
31442;SDS011;18065;55.876;9.830;2023-02-11T03:17:04;4.97;;;1.20;;
31442;SDS011;18065;55.876;9.830;2023-02-11T03:19:38;2.42;;;1.17;;
31442;SDS011;18065;55.876;9.830;2023-02-11T03:22:11;4.25;;;1.20;;
31442;SDS011;18065;55.876;9.830;2023-02-11T03:24:44;4.25;;;1.13;;
31442;SDS011;18065;55.876;9.830;2023-02-11T03:27:14;2.60;;;1.00;;
31442;SDS011;18065;55.876;9.830;2023-02-11T03:29:49;2.90;;;1.00;;
31442;SDS011;18065;55.876;9.830;2023-02-11T03:32:22;2.15;;;1.05;;
31442;SDS011;18065;55.876;9.830;2023-02-11T03:34:59;3.03;;;1.05;;
31442;SDS011;18065;55.876;9.830;2023-02-11T03:37:34;3.67;;;1.20;;
31442;SDS011;18065;55.876;9.830;2023-02-11T03:40:07;2.53;;;1.10;;
31442;SDS011;18065;55.876;9.830;2023-02-11T03:42:40;2.22;;;1.00;;
31442;SDS011;18065;55.876;9.830;2023-02-11T03:45:12;1.90;;;1.02;;
31442;SDS011;18065;55.876;9.830;2023-02-11T03:47:45;3.13;;;1.10;;
31442;SDS011;18065;55.876;9.830;2023-02-11T03:50:20;2.42;;;1.10;;
31442;SDS011;18065;55.876;9.830;2023-02-11T03:52:50;2.53;;;0.90;;
31442;SDS011;18065;55.876;9.830;2023-02-11T03:55:20;3.25;;;1.05;;
31442;SDS011;18065;55.876;9.830;2023-02-11T03:57:52;2.80;;;1.20;;
31442;SDS011;18065;55.876;9.830;2023-02-11T04:00:25;2.05;;;1.02;;
31442;SDS011;18065;55.876;9.830;2023-02-11T04:02:57;2.63;;;1.20;;
31442;SDS011;18065;55.876;9.830;2023-02-11T04:05:28;4.57;;;1.10;;
31442;SDS011;18065;55.876;9.830;2023-02-11T04:07:57;3.80;;;1.10;;
31442;SDS011;18065;55.876;9.830;2023-02-11T04:10:26;3.95;;;1.40;;
31442;SDS011;18065;55.876;9.830;2023-02-11T04:12:54;4.80;;;1.00;;
31442;SDS011;18065;55.876;9.830;2023-02-11T04:15:23;2.25;;;1.02;;
31442;SDS011;18065;55.876;9.830;2023-02-11T04:17:52;3.50;;;1.10;;
31442;SDS011;18065;55.876;9.830;2023-02-11T04:20:21;3.90;;;1.17;;
31442;SDS011;18065;55.876;9.830;2023-02-11T04:22:52;3.97;;;1.20;;
31442;SDS011;18065;55.876;9.830;2023-02-11T04:25:21;3.28;;;1.23;;
31442;SDS011;18065;55.876;9.830;2023-02-11T04:27:50;3.33;;;1.27;;
31442;SDS011;18065;55.876;9.830;2023-02-11T04:30:18;3.90;;;1.10;;
31442;SDS011;18065;55.876;9.830;2023-02-11T04:32:47;2.70;;;1.10;;
31442;SDS011;18065;55.876;9.830;2023-02-11T04:35:18;3.83;;;1.40;;
31442;SDS011;18065;55.876;9.830;2023-02-11T04:37:47;2.25;;;1.02;;
31442;SDS011;18065;55.876;9.830;2023-02-11T04:40:18;4.03;;;1.50;;
31442;SDS011;18065;55.876;9.830;2023-02-11T04:42:47;3.72;;;1.38;;
31442;SDS011;18065;55.876;9.830;2023-02-11T04:45:16;3.13;;;1.33;;
31442;SDS011;18065;55.876;9.830;2023-02-11T04:47:45;4.15;;;1.27;;
31442;SDS011;18065;55.876;9.830;2023-02-11T04:50:14;2.33;;;1.27;;
31442;SDS011;18065;55.876;9.830;2023-02-11T04:52:42;3.95;;;1.20;;
31442;SDS011;18065;55.876;9.830;2023-02-11T04:55:11;2.92;;;0.93;;
31442;SDS011;18065;55.876;9.830;2023-02-11T04:57:43;3.13;;;1.00;;
31442;SDS011;18065;55.876;9.830;2023-02-11T05:00:12;4.00;;;1.20;;
31442;SDS011;18065;55.876;9.830;2023-02-11T05:02:41;3.40;;;1.15;;
31442;SDS011;18065;55.876;9.830;2023-02-11T05:05:10;4.20;;;1.27;;
31442;SDS011;18065;55.876;9.830;2023-02-11T05:07:39;2.47;;;1.10;;
31442;SDS011;18065;55.876;9.830;2023-02-11T05:10:07;2.95;;;1.10;;
31442;SDS011;18065;55.876;9.830;2023-02-11T05:12:36;2.42;;;0.90;;
31442;SDS011;18065;55.876;9.830;2023-02-11T05:15:08;4.97;;;1.23;;
31442;SDS011;18065;55.876;9.830;2023-02-11T05:17:37;3.38;;;1.35;;
31442;SDS011;18065;55.876;9.830;2023-02-11T05:20:06;3.15;;;1.10;;
31442;SDS011;18065;55.876;9.830;2023-02-11T05:22:35;2.45;;;1.00;;
31442;SDS011;18065;55.876;9.830;2023-02-11T05:25:04;4.80;;;1.48;;
31442;SDS011;18065;55.876;9.830;2023-02-11T05:27:33;3.22;;;0.90;;
31442;SDS011;18065;55.876;9.830;2023-02-11T05:30:03;2.38;;;0.93;;
31442;SDS011;18065;55.876;9.830;2023-02-11T05:32:35;4.60;;;0.93;;
31442;SDS011;18065;55.876;9.830;2023-02-11T05:35:04;2.63;;;1.25;;
31442;SDS011;18065;55.876;9.830;2023-02-11T05:37:33;1.83;;;1.02;;
31442;SDS011;18065;55.876;9.830;2023-02-11T05:40:03;1.45;;;0.82;;
31442;SDS011;18065;55.876;9.830;2023-02-11T05:42:32;3.70;;;1.13;;
31442;SDS011;18065;55.876;9.830;2023-02-11T05:45:01;3.58;;;1.02;;
31442;SDS011;18065;55.876;9.830;2023-02-11T05:47:31;2.45;;;0.90;;
31442;SDS011;18065;55.876;9.830;2023-02-11T05:50:02;4.22;;;1.17;;
31442;SDS011;18065;55.876;9.830;2023-02-11T05:52:31;4.82;;;1.42;;
31442;SDS011;18065;55.876;9.830;2023-02-11T05:54:59;2.47;;;1.00;;
31442;SDS011;18065;55.876;9.830;2023-02-11T05:57:28;3.63;;;1.23;;
31442;SDS011;18065;55.876;9.830;2023-02-11T05:59:57;2.65;;;1.13;;
31442;SDS011;18065;55.876;9.830;2023-02-11T06:02:25;2.53;;;1.00;;
31442;SDS011;18065;55.876;9.830;2023-02-11T06:04:54;3.05;;;1.15;;
31442;SDS011;18065;55.876;9.830;2023-02-11T06:07:26;1.35;;;0.90;;
31442;SDS011;18065;55.876;9.830;2023-02-11T06:09:57;3.95;;;1.30;;
31442;SDS011;18065;55.876;9.830;2023-02-11T06:12:26;1.85;;;1.10;;
31442;SDS011;18065;55.876;9.830;2023-02-11T06:14:55;3.38;;;0.85;;
31442;SDS011;18065;55.876;9.830;2023-02-11T06:17:23;2.88;;;0.98;;
31442;SDS011;18065;55.876;9.830;2023-02-11T06:19:53;3.42;;;1.10;;
31442;SDS011;18065;55.876;9.830;2023-02-11T06:22:21;1.90;;;0.90;;
31442;SDS011;18065;55.876;9.830;2023-02-11T06:24:53;3.70;;;0.90;;
31442;SDS011;18065;55.876;9.830;2023-02-11T06:27:21;1.92;;;0.88;;
31442;SDS011;18065;55.876;9.830;2023-02-11T06:29:50;3.15;;;1.13;;
31442;SDS011;18065;55.876;9.830;2023-02-11T06:32:19;2.17;;;1.00;;
31442;SDS011;18065;55.876;9.830;2023-02-11T06:34:48;3.00;;;0.95;;
31442;SDS011;18065;55.876;9.830;2023-02-11T06:37:17;2.70;;;1.02;;
31442;SDS011;18065;55.876;9.830;2023-02-11T06:39:45;3.40;;;1.10;;
31442;SDS011;18065;55.876;9.830;2023-02-11T06:42:17;3.45;;;1.15;;
31442;SDS011;18065;55.876;9.830;2023-02-11T06:44:46;2.63;;;1.00;;
31442;SDS011;18065;55.876;9.830;2023-02-11T06:47:14;4.00;;;1.10;;
31442;SDS011;18065;55.876;9.830;2023-02-11T06:49:43;2.42;;;1.00;;
31442;SDS011;18065;55.876;9.830;2023-02-11T06:52:12;3.90;;;1.00;;
31442;SDS011;18065;55.876;9.830;2023-02-11T06:54:41;2.08;;;0.90;;
31442;SDS011;18065;55.876;9.830;2023-02-11T06:57:09;2.35;;;1.00;;
31442;SDS011;18065;55.876;9.830;2023-02-11T06:59:41;2.05;;;1.10;;
31442;SDS011;18065;55.876;9.830;2023-02-11T07:02:10;2.38;;;0.75;;
31442;SDS011;18065;55.876;9.830;2023-02-11T07:04:38;5.20;;;1.05;;
31442;SDS011;18065;55.876;9.830;2023-02-11T07:07:08;3.35;;;1.08;;
31442;SDS011;18065;55.876;9.830;2023-02-11T07:09:36;3.17;;;0.95;;
31442;SDS011;18065;55.876;9.830;2023-02-11T07:12:05;2.38;;;0.90;;
31442;SDS011;18065;55.876;9.830;2023-02-11T07:14:36;4.82;;;1.20;;
31442;SDS011;18065;55.876;9.830;2023-02-11T07:17:08;3.53;;;1.38;;
31442;SDS011;18065;55.876;9.830;2023-02-11T07:19:37;2.83;;;1.35;;
31442;SDS011;18065;55.876;9.830;2023-02-11T07:22:05;4.50;;;1.95;;
31442;SDS011;18065;55.876;9.830;2023-02-11T07:24:34;5.85;;;1.63;;
31442;SDS011;18065;55.876;9.830;2023-02-11T07:27:03;4.50;;;1.58;;
31442;SDS011;18065;55.876;9.830;2023-02-11T07:29:32;2.63;;;1.60;;
31442;SDS011;18065;55.876;9.830;2023-02-11T07:32:00;2.85;;;1.88;;
31442;SDS011;18065;55.876;9.830;2023-02-11T07:34:32;3.55;;;1.75;;
31442;SDS011;18065;55.876;9.830;2023-02-11T07:37:00;3.22;;;1.85;;
31442;SDS011;18065;55.876;9.830;2023-02-11T07:39:29;4.00;;;2.33;;
31442;SDS011;18065;55.876;9.830;2023-02-11T07:41:58;4.43;;;2.03;;
31442;SDS011;18065;55.876;9.830;2023-02-11T07:44:28;3.67;;;2.20;;
31442;SDS011;18065;55.876;9.830;2023-02-11T07:46:57;4.85;;;2.22;;
31442;SDS011;18065;55.876;9.830;2023-02-11T07:49:26;25.30;;;2.72;;
31442;SDS011;18065;55.876;9.830;2023-02-11T07:51:57;5.00;;;2.50;;
31442;SDS011;18065;55.876;9.830;2023-02-11T07:54:26;5.15;;;2.70;;
31442;SDS011;18065;55.876;9.830;2023-02-11T07:56:55;5.35;;;2.70;;
31442;SDS011;18065;55.876;9.830;2023-02-11T07:59:23;4.90;;;2.90;;
31442;SDS011;18065;55.876;9.830;2023-02-11T08:01:52;4.03;;;3.10;;
31442;SDS011;18065;55.876;9.830;2023-02-11T08:04:21;6.53;;;3.15;;
31442;SDS011;18065;55.876;9.830;2023-02-11T08:06:49;4.32;;;3.00;;
31442;SDS011;18065;55.876;9.830;2023-02-11T08:09:24;8.73;;;3.75;;
31442;SDS011;18065;55.876;9.830;2023-02-11T08:11:52;4.63;;;3.40;;
31442;SDS011;18065;55.876;9.830;2023-02-11T08:14:21;3.83;;;3.45;;
31442;SDS011;18065;55.876;9.830;2023-02-11T08:16:51;4.07;;;3.35;;
31442;SDS011;18065;55.876;9.830;2023-02-11T08:19:20;5.95;;;3.55;;
31442;SDS011;18065;55.876;9.830;2023-02-11T08:21:48;6.55;;;3.63;;
31442;SDS011;18065;55.876;9.830;2023-02-11T08:24:17;5.22;;;3.53;;
31442;SDS011;18065;55.876;9.830;2023-02-11T08:26:49;5.60;;;3.85;;
31442;SDS011;18065;55.876;9.830;2023-02-11T08:29:17;4.78;;;3.67;;
31442;SDS011;18065;55.876;9.830;2023-02-11T08:31:46;3.42;;;3.13;;
31442;SDS011;18065;55.876;9.830;2023-02-11T08:34:15;5.38;;;3.58;;
31442;SDS011;18065;55.876;9.830;2023-02-11T08:36:46;8.80;;;3.88;;
31442;SDS011;18065;55.876;9.830;2023-02-11T08:39:16;4.57;;;3.55;;
31442;SDS011;18065;55.876;9.830;2023-02-11T08:41:45;4.60;;;3.50;;
31442;SDS011;18065;55.876;9.830;2023-02-11T08:44:17;4.72;;;3.35;;
31442;SDS011;18065;55.876;9.830;2023-02-11T08:46:47;4.57;;;3.35;;
31442;SDS011;18065;55.876;9.830;2023-02-11T08:49:16;3.78;;;3.15;;
31442;SDS011;18065;55.876;9.830;2023-02-11T08:51:45;5.57;;;3.78;;
31442;SDS011;18065;55.876;9.830;2023-02-11T08:54:14;4.43;;;3.25;;
31442;SDS011;18065;55.876;9.830;2023-02-11T08:56:43;3.50;;;3.20;;
31442;SDS011;18065;55.876;9.830;2023-02-11T08:59:14;4.47;;;3.15;;
31442;SDS011;18065;55.876;9.830;2023-02-11T09:01:43;4.95;;;3.08;;
31442;SDS011;18065;55.876;9.830;2023-02-11T09:04:12;5.78;;;3.50;;
31442;SDS011;18065;55.876;9.830;2023-02-11T09:06:41;4.97;;;3.20;;
31442;SDS011;18065;55.876;9.830;2023-02-11T09:09:10;4.53;;;2.90;;
31442;SDS011;18065;55.876;9.830;2023-02-11T09:11:41;5.43;;;2.80;;
31442;SDS011;18065;55.876;9.830;2023-02-11T09:14:17;4.65;;;2.90;;
31442;SDS011;18065;55.876;9.830;2023-02-11T09:16:47;3.25;;;2.40;;
31442;SDS011;18065;55.876;9.830;2023-02-11T09:19:17;4.18;;;3.03;;
31442;SDS011;18065;55.876;9.830;2023-02-11T09:21:47;7.28;;;2.53;;
31442;SDS011;18065;55.876;9.830;2023-02-11T09:24:16;3.30;;;2.30;;
31442;SDS011;18065;55.876;9.830;2023-02-11T09:26:44;3.22;;;2.65;;
31442;SDS011;18065;55.876;9.830;2023-02-11T09:29:16;3.45;;;2.50;;
31442;SDS011;18065;55.876;9.830;2023-02-11T09:31:45;2.75;;;2.22;;
31442;SDS011;18065;55.876;9.830;2023-02-11T09:34:14;3.40;;;2.60;;
31442;SDS011;18065;55.876;9.830;2023-02-11T09:36:43;4.03;;;2.67;;
31442;SDS011;18065;55.876;9.830;2023-02-11T09:39:12;3.35;;;2.40;;
31442;SDS011;18065;55.876;9.830;2023-02-11T09:41:53;2.67;;;2.33;;
31442;SDS011;18065;55.876;9.830;2023-02-11T09:44:44;5.30;;;2.85;;
31442;SDS011;18065;55.876;9.830;2023-02-11T09:47:20;3.85;;;2.33;;
31442;SDS011;18065;55.876;9.830;2023-02-11T09:49:55;3.35;;;2.15;;
31442;SDS011;18065;55.876;9.830;2023-02-11T09:52:29;5.57;;;2.38;;
31442;SDS011;18065;55.876;9.830;2023-02-11T09:55:04;4.15;;;2.08;;
31442;SDS011;18065;55.876;9.830;2023-02-11T09:57:42;4.10;;;2.25;;
31442;SDS011;18065;55.876;9.830;2023-02-11T10:00:22;3.83;;;2.25;;
31442;SDS011;18065;55.876;9.830;2023-02-11T10:02:57;3.35;;;2.17;;
31442;SDS011;18065;55.876;9.830;2023-02-11T10:08:12;6.53;;;2.17;;
31442;SDS011;18065;55.876;9.830;2023-02-11T10:10:46;4.05;;;2.22;;
31442;SDS011;18065;55.876;9.830;2023-02-11T10:16:24;2.55;;;1.70;;
31442;SDS011;18065;55.876;9.830;2023-02-11T10:19:07;2.85;;;1.95;;
31442;SDS011;18065;55.876;9.830;2023-02-11T10:24:18;4.63;;;1.95;;
31442;SDS011;18065;55.876;9.830;2023-02-11T10:26:48;3.40;;;2.00;;
31442;SDS011;18065;55.876;9.830;2023-02-11T10:29:25;3.95;;;1.80;;
31442;SDS011;18065;55.876;9.830;2023-02-11T10:32:05;2.70;;;1.85;;
31442;SDS011;18065;55.876;9.830;2023-02-11T10:34:48;2.67;;;1.80;;
31442;SDS011;18065;55.876;9.830;2023-02-11T10:37:17;2.55;;;1.77;;
31442;SDS011;18065;55.876;9.830;2023-02-11T10:39:46;3.08;;;1.77;;
31442;SDS011;18065;55.876;9.830;2023-02-11T10:42:15;3.05;;;1.90;;
31442;SDS011;18065;55.876;9.830;2023-02-11T10:44:48;2.80;;;1.80;;
31442;SDS011;18065;55.876;9.830;2023-02-11T10:47:28;3.10;;;1.60;;
31442;SDS011;18065;55.876;9.830;2023-02-11T10:50:03;3.05;;;1.85;;
31442;SDS011;18065;55.876;9.830;2023-02-11T10:52:47;2.95;;;1.63;;
31442;SDS011;18065;55.876;9.830;2023-02-11T10:55:16;3.03;;;1.92;;
31442;SDS011;18065;55.876;9.830;2023-02-11T10:57:54;3.47;;;2.05;;
31442;SDS011;18065;55.876;9.830;2023-02-11T11:00:27;2.95;;;1.60;;
31442;SDS011;18065;55.876;9.830;2023-02-11T11:03:06;4.03;;;1.60;;
31442;SDS011;18065;55.876;9.830;2023-02-11T11:05:45;4.50;;;1.80;;
31442;SDS011;18065;55.876;9.830;2023-02-11T11:08:16;3.37;;;1.70;;
31442;SDS011;18065;55.876;9.830;2023-02-11T11:10:46;2.72;;;1.50;;
31442;SDS011;18065;55.876;9.830;2023-02-11T11:13:22;1.45;;;1.33;;
31442;SDS011;18065;55.876;9.830;2023-02-11T11:16:07;3.10;;;1.65;;
31442;SDS011;18065;55.876;9.830;2023-02-11T11:18:44;4.40;;;1.70;;
31442;SDS011;18065;55.876;9.830;2023-02-11T11:21:15;2.65;;;1.60;;
31442;SDS011;18065;55.876;9.830;2023-02-11T11:23:48;2.03;;;1.63;;
31442;SDS011;18065;55.876;9.830;2023-02-11T11:26:20;2.70;;;1.50;;
31442;SDS011;18065;55.876;9.830;2023-02-11T11:28:52;4.30;;;1.95;;
31442;SDS011;18065;55.876;9.830;2023-02-11T11:31:24;3.40;;;1.70;;
31442;SDS011;18065;55.876;9.830;2023-02-11T11:33:58;3.83;;;1.92;;
31442;SDS011;18065;55.876;9.830;2023-02-11T11:36:31;2.63;;;1.40;;
31442;SDS011;18065;55.876;9.830;2023-02-11T11:39:09;6.00;;;1.92;;
31442;SDS011;18065;55.876;9.830;2023-02-11T11:41:49;3.10;;;1.60;;
31442;SDS011;18065;55.876;9.830;2023-02-11T11:44:24;3.40;;;2.05;;
31442;SDS011;18065;55.876;9.830;2023-02-11T11:49:59;4.35;;;1.77;;
31442;SDS011;18065;55.876;9.830;2023-02-11T11:52:40;3.33;;;1.63;;
31442;SDS011;18065;55.876;9.830;2023-02-11T11:55:16;4.03;;;1.50;;
31442;SDS011;18065;55.876;9.830;2023-02-11T11:57:47;4.32;;;1.73;;
31442;SDS011;18065;55.876;9.830;2023-02-11T12:00:17;3.05;;;1.60;;
31442;SDS011;18065;55.876;9.830;2023-02-11T12:03:03;4.15;;;1.80;;
31442;SDS011;18065;55.876;9.830;2023-02-11T12:05:53;4.82;;;1.90;;
31442;SDS011;18065;55.876;9.830;2023-02-11T12:08:40;2.53;;;1.50;;
31442;SDS011;18065;55.876;9.830;2023-02-11T12:11:17;3.58;;;1.73;;
31442;SDS011;18065;55.876;9.830;2023-02-11T12:16:27;4.43;;;1.83;;
31442;SDS011;18065;55.876;9.830;2023-02-11T12:19:16;4.95;;;1.73;;
31442;SDS011;18065;55.876;9.830;2023-02-11T12:22:04;5.22;;;1.92;;
31442;SDS011;18065;55.876;9.830;2023-02-11T12:24:47;4.75;;;1.83;;
31442;SDS011;18065;55.876;9.830;2023-02-11T12:27:27;5.22;;;1.98;;
31442;SDS011;18065;55.876;9.830;2023-02-11T12:30:10;4.28;;;1.80;;
31442;SDS011;18065;55.876;9.830;2023-02-11T12:32:52;6.77;;;1.90;;
31442;SDS011;18065;55.876;9.830;2023-02-11T12:35:27;4.35;;;1.95;;
31442;SDS011;18065;55.876;9.830;2023-02-11T12:41:14;5.00;;;2.10;;
31442;SDS011;18065;55.876;9.830;2023-02-11T12:44:13;4.38;;;1.95;;
31442;SDS011;18065;55.876;9.830;2023-02-11T12:46:48;5.15;;;2.35;;
31442;SDS011;18065;55.876;9.830;2023-02-11T12:49:31;4.55;;;2.03;;
31442;SDS011;18065;55.876;9.830;2023-02-11T12:52:14;5.90;;;1.90;;
31442;SDS011;18065;55.876;9.830;2023-02-11T12:54:51;3.05;;;1.52;;
31442;SDS011;18065;55.876;9.830;2023-02-11T12:57:29;4.97;;;2.13;;
31442;SDS011;18065;55.876;9.830;2023-02-11T13:00:01;5.65;;;1.70;;
31442;SDS011;18065;55.876;9.830;2023-02-11T13:02:36;4.43;;;1.83;;
31442;SDS011;18065;55.876;9.830;2023-02-11T13:05:19;4.32;;;2.10;;
31442;SDS011;18065;55.876;9.830;2023-02-11T13:07:53;4.03;;;2.00;;
31442;SDS011;18065;55.876;9.830;2023-02-11T13:10:26;4.45;;;1.70;;
31442;SDS011;18065;55.876;9.830;2023-02-11T13:13:04;3.33;;;1.60;;
31442;SDS011;18065;55.876;9.830;2023-02-11T13:15:45;3.47;;;1.60;;
31442;SDS011;18065;55.876;9.830;2023-02-11T13:18:21;3.87;;;1.90;;
31442;SDS011;18065;55.876;9.830;2023-02-11T13:21:26;4.30;;;1.98;;
31442;SDS011;18065;55.876;9.830;2023-02-11T13:24:03;5.50;;;1.98;;
31442;SDS011;18065;55.876;9.830;2023-02-11T13:26:41;4.05;;;2.10;;
31442;SDS011;18065;55.876;9.830;2023-02-11T13:29:24;5.65;;;1.67;;
31442;SDS011;18065;55.876;9.830;2023-02-11T13:32:04;4.72;;;2.30;;
31442;SDS011;18065;55.876;9.830;2023-02-11T13:37:30;4.65;;;1.77;;
31442;SDS011;18065;55.876;9.830;2023-02-11T13:40:04;4.88;;;2.17;;
31442;SDS011;18065;55.876;9.830;2023-02-11T13:42:48;3.83;;;1.70;;
31442;SDS011;18065;55.876;9.830;2023-02-11T13:45:26;3.72;;;1.63;;
31442;SDS011;18065;55.876;9.830;2023-02-11T13:47:57;4.55;;;1.92;;
31442;SDS011;18065;55.876;9.830;2023-02-11T13:50:28;3.33;;;1.50;;
31442;SDS011;18065;55.876;9.830;2023-02-11T13:53:04;6.68;;;1.95;;
31442;SDS011;18065;55.876;9.830;2023-02-11T13:55:34;5.22;;;1.63;;
31442;SDS011;18065;55.876;9.830;2023-02-11T13:58:16;4.80;;;1.80;;
31442;SDS011;18065;55.876;9.830;2023-02-11T14:01:06;5.22;;;1.80;;
31442;SDS011;18065;55.876;9.830;2023-02-11T14:03:36;4.53;;;1.80;;
31442;SDS011;18065;55.876;9.830;2023-02-11T14:06:19;4.03;;;1.90;;
31442;SDS011;18065;55.876;9.830;2023-02-11T14:09:31;3.58;;;1.67;;
31442;SDS011;18065;55.876;9.830;2023-02-11T14:12:18;5.82;;;1.88;;
31442;SDS011;18065;55.876;9.830;2023-02-11T14:23:19;3.83;;;1.63;;
31442;SDS011;18065;55.876;9.830;2023-02-11T14:28:59;3.87;;;1.73;;
31442;SDS011;18065;55.876;9.830;2023-02-11T14:31:33;4.53;;;2.08;;
31442;SDS011;18065;55.876;9.830;2023-02-11T14:34:18;3.90;;;2.15;;
31442;SDS011;18065;55.876;9.830;2023-02-11T14:37:09;5.63;;;1.80;;
31442;SDS011;18065;55.876;9.830;2023-02-11T14:39:49;7.10;;;2.15;;
31442;SDS011;18065;55.876;9.830;2023-02-11T14:42:25;3.75;;;1.45;;
31442;SDS011;18065;55.876;9.830;2023-02-11T14:44:56;4.40;;;1.40;;
31442;SDS011;18065;55.876;9.830;2023-02-11T14:47:35;5.53;;;1.92;;
31442;SDS011;18065;55.876;9.830;2023-02-11T14:50:16;4.30;;;1.75;;
31442;SDS011;18065;55.876;9.830;2023-02-11T14:52:49;3.95;;;1.63;;
31442;SDS011;18065;55.876;9.830;2023-02-11T14:55:23;4.30;;;1.45;;
31442;SDS011;18065;55.876;9.830;2023-02-11T15:00:46;3.78;;;1.77;;
31442;SDS011;18065;55.876;9.830;2023-02-11T15:03:30;5.53;;;1.70;;
31442;SDS011;18065;55.876;9.830;2023-02-11T15:06:05;3.42;;;1.63;;
31442;SDS011;18065;55.876;9.830;2023-02-11T15:08:42;4.05;;;1.52;;
31442;SDS011;18065;55.876;9.830;2023-02-11T15:11:14;5.10;;;1.60;;
31442;SDS011;18065;55.876;9.830;2023-02-11T15:13:46;4.97;;;1.65;;
31442;SDS011;18065;55.876;9.830;2023-02-11T15:16:17;3.67;;;1.40;;
31442;SDS011;18065;55.876;9.830;2023-02-11T15:18:48;4.25;;;1.75;;
31442;SDS011;18065;55.876;9.830;2023-02-11T15:21:24;6.80;;;1.95;;
31442;SDS011;18065;55.876;9.830;2023-02-11T15:23:58;5.78;;;2.00;;
31442;SDS011;18065;55.876;9.830;2023-02-11T15:26:30;6.15;;;1.85;;
31442;SDS011;18065;55.876;9.830;2023-02-11T15:28:59;6.03;;;1.80;;
31442;SDS011;18065;55.876;9.830;2023-02-11T15:31:29;4.13;;;1.45;;
31442;SDS011;18065;55.876;9.830;2023-02-11T15:33:57;6.22;;;2.00;;
31442;SDS011;18065;55.876;9.830;2023-02-11T15:36:37;7.10;;;1.90;;
31442;SDS011;18065;55.876;9.830;2023-02-11T15:44:46;4.30;;;1.80;;
31442;SDS011;18065;55.876;9.830;2023-02-11T15:47:17;8.63;;;1.63;;
31442;SDS011;18065;55.876;9.830;2023-02-11T15:49:47;3.83;;;1.52;;
31442;SDS011;18065;55.876;9.830;2023-02-11T15:52:23;6.10;;;1.83;;
31442;SDS011;18065;55.876;9.830;2023-02-11T15:54:54;5.43;;;1.70;;
31442;SDS011;18065;55.876;9.830;2023-02-11T15:57:25;4.75;;;1.75;;
31442;SDS011;18065;55.876;9.830;2023-02-11T15:59:55;4.38;;;1.90;;
31442;SDS011;18065;55.876;9.830;2023-02-11T16:02:29;4.00;;;1.50;;
31442;SDS011;18065;55.876;9.830;2023-02-11T16:05:01;6.65;;;2.10;;
31442;SDS011;18065;55.876;9.830;2023-02-11T16:07:45;5.03;;;1.77;;
31442;SDS011;18065;55.876;9.830;2023-02-11T16:10:16;4.55;;;1.77;;
31442;SDS011;18065;55.876;9.830;2023-02-11T16:12:50;5.25;;;1.60;;